createdAt,value
2022-12-23T00:01:02.524Z,7.10
2022-12-23T00:04:08.383Z,9.27
2022-12-23T00:07:13.762Z,9.20
2022-12-23T00:10:19.100Z,7.70
2022-12-23T00:13:42.600Z,7.85
2022-12-23T00:16:47.485Z,6.72
2022-12-23T00:19:52.185Z,7.68
2022-12-23T00:23:05.995Z,7.00
2022-12-23T00:26:21.145Z,5.45
2022-12-23T00:29:26.043Z,5.90
2022-12-23T00:32:31.022Z,6.80
2022-12-23T00:35:35.908Z,4.68
2022-12-23T00:38:59.570Z,5.63
2022-12-23T00:42:22.895Z,5.40
2022-12-23T00:45:27.813Z,4.32
2022-12-23T00:48:51.249Z,6.47
2022-12-23T00:51:56.015Z,4.30
2022-12-23T00:55:00.847Z,4.95
2022-12-23T00:58:05.901Z,6.00
2022-12-23T01:01:29.243Z,6.20
2022-12-23T01:04:53.241Z,5.75
2022-12-23T01:07:58.370Z,5.13
2022-12-23T01:11:05.875Z,5.50
2022-12-23T01:14:11.545Z,5.20
2022-12-23T01:17:16.930Z,5.38
2022-12-23T01:20:22.189Z,7.40
2022-12-23T01:23:26.867Z,4.03
2022-12-23T01:26:31.651Z,5.32
2022-12-23T01:29:36.717Z,6.30
2022-12-23T01:32:41.418Z,4.90
2022-12-23T01:35:46.867Z,4.60
2022-12-23T01:38:52.167Z,4.25
2022-12-23T01:42:15.539Z,5.95
2022-12-23T01:45:30.139Z,4.53
2022-12-23T01:48:35.410Z,3.92
2022-12-23T01:51:40.161Z,5.10
2022-12-23T01:54:45.788Z,4.20
2022-12-23T01:57:52.697Z,3.90
2022-12-23T02:01:17.118Z,5.25
2022-12-23T02:04:24.555Z,3.80
2022-12-23T02:07:48.391Z,3.45
2022-12-23T02:11:38.998Z,5.78
2022-12-23T02:15:08.391Z,4.05
2022-12-23T02:18:30.036Z,3.63
2022-12-23T02:21:48.691Z,3.47
2022-12-23T02:25:22.305Z,2.92
2022-12-23T02:29:04.257Z,3.10
2022-12-23T02:32:40.186Z,4.70
2022-12-23T02:36:07.219Z,3.50
2022-12-23T02:39:38.864Z,5.80
2022-12-23T02:42:54.071Z,3.22
2022-12-23T02:46:04.580Z,3.03
2022-12-23T02:49:20.924Z,5.20
2022-12-23T02:52:31.847Z,2.95
2022-12-23T02:55:38.493Z,2.90
2022-12-23T02:58:53.602Z,3.80
2022-12-23T03:02:00.029Z,3.88
2022-12-23T03:05:06.652Z,4.47
2022-12-23T03:08:29.528Z,3.10
2022-12-23T03:12:16.208Z,2.75
2022-12-23T03:15:57.599Z,2.97
2022-12-23T03:19:06.148Z,4.43
2022-12-23T03:22:29.344Z,1.60
2022-12-23T03:25:39.104Z,2.30
2022-12-23T03:29:19.797Z,5.88
2022-12-23T03:32:27.371Z,2.50
2022-12-23T03:35:47.682Z,1.42
2022-12-23T03:38:54.341Z,2.47
2022-12-23T03:42:09.212Z,3.30
2022-12-23T03:45:38.062Z,1.50
2022-12-23T03:48:54.227Z,2.45
2022-12-23T03:52:05.948Z,2.15
2022-12-23T03:55:18.473Z,3.13
2022-12-23T03:58:45.934Z,2.17
2022-12-23T04:02:25.609Z,2.63
2022-12-23T04:05:35.237Z,1.45
2022-12-23T04:08:41.455Z,1.38
2022-12-23T04:11:46.792Z,2.42
2022-12-23T04:14:52.006Z,2.45
2022-12-23T04:17:58.168Z,1.83
2022-12-23T04:21:03.047Z,2.63
2022-12-23T04:24:08.461Z,1.35
2022-12-23T04:27:15.090Z,5.03
2022-12-23T04:30:20.195Z,3.08
2022-12-23T04:33:25.454Z,2.95
2022-12-23T04:36:30.235Z,2.50
2022-12-23T04:39:35.169Z,2.30
2022-12-23T04:42:40.051Z,2.13
2022-12-23T04:45:45.015Z,1.40
2022-12-23T04:48:49.916Z,2.42
2022-12-23T04:51:54.910Z,3.83
2022-12-23T04:54:59.874Z,4.00
2022-12-23T04:58:04.734Z,2.42
2022-12-23T05:01:11.201Z,2.35
2022-12-23T05:04:16.199Z,2.35
2022-12-23T05:07:21.092Z,2.08
2022-12-23T05:10:26.183Z,4.25
2022-12-23T05:13:31.379Z,2.65
2022-12-23T05:16:36.431Z,2.70
2022-12-23T05:19:41.214Z,3.90
2022-12-23T05:22:46.097Z,3.22
2022-12-23T05:25:53.265Z,2.88
2022-12-23T05:28:58.342Z,2.92
2022-12-23T05:32:03.569Z,3.65
2022-12-23T05:35:09.189Z,2.88
2022-12-23T05:38:14.598Z,4.55
2022-12-23T05:41:19.744Z,3.67
2022-12-23T05:44:24.324Z,2.53
2022-12-23T05:47:29.081Z,3.85
2022-12-23T05:50:33.955Z,3.20
2022-12-23T05:53:40.317Z,4.53
2022-12-23T05:56:45.576Z,3.83
2022-12-23T05:59:50.513Z,3.22
2022-12-23T06:02:55.554Z,4.03
2022-12-23T06:06:00.751Z,4.05
2022-12-23T06:09:05.543Z,4.38
2022-12-23T06:12:10.235Z,4.00
2022-12-23T06:15:15.698Z,4.22
2022-12-23T06:18:21.042Z,5.93
2022-12-23T06:21:25.876Z,3.10
2022-12-23T06:24:30.828Z,2.58
2022-12-23T06:27:35.619Z,3.05
2022-12-23T06:30:40.647Z,3.95
2022-12-23T06:33:45.822Z,4.20
2022-12-23T06:36:50.912Z,2.22
2022-12-23T06:39:56.192Z,1.90
2022-12-23T06:43:01.141Z,2.50
2022-12-23T06:46:06.251Z,3.15
2022-12-23T06:49:13.783Z,2.28
2022-12-23T06:52:18.847Z,5.43
2022-12-23T06:55:24.069Z,3.63
2022-12-23T06:58:29.125Z,3.22
2022-12-23T07:01:34.188Z,3.40
2022-12-23T07:04:39.765Z,3.88
2022-12-23T07:07:45.045Z,3.20
2022-12-23T07:10:49.776Z,2.58
2022-12-23T07:13:54.819Z,3.45
2022-12-23T07:16:59.852Z,4.43
2022-12-23T07:20:06.313Z,4.30
2022-12-23T07:23:11.154Z,4.32
2022-12-23T07:26:16.087Z,3.38
2022-12-23T07:29:20.991Z,2.72
2022-12-23T07:32:25.932Z,4.63
2022-12-23T07:35:30.603Z,3.55
2022-12-23T07:38:35.730Z,4.03
2022-12-23T07:41:40.603Z,4.70
2022-12-23T07:44:45.694Z,2.70
2022-12-23T07:47:55.359Z,3.28
2022-12-23T07:51:02.342Z,3.20
2022-12-23T07:54:07.261Z,4.07
2022-12-23T07:57:12.392Z,3.95
2022-12-23T08:00:18.780Z,4.75
2022-12-23T08:03:23.969Z,3.78
2022-12-23T08:06:29.440Z,3.67
2022-12-23T08:09:34.264Z,2.30
2022-12-23T08:12:39.236Z,2.58
2022-12-23T08:15:44.125Z,2.55
2022-12-23T08:18:49.138Z,3.28
2022-12-23T08:21:53.968Z,2.75
2022-12-23T08:24:59.829Z,3.35
2022-12-23T08:28:04.749Z,3.75
2022-12-23T08:31:33.273Z,2.50
2022-12-23T08:34:38.415Z,4.15
2022-12-23T08:37:43.454Z,3.38
2022-12-23T08:40:48.879Z,2.53
2022-12-23T08:43:54.344Z,3.67
2022-12-23T08:46:59.616Z,3.63
2022-12-23T08:50:05.429Z,2.63
2022-12-23T08:53:10.939Z,4.28
2022-12-23T08:56:21.789Z,3.28
2022-12-23T08:59:26.791Z,3.97
2022-12-23T09:02:31.798Z,4.20
2022-12-23T09:05:41.203Z,7.95
2022-12-23T09:08:46.812Z,3.40
2022-12-23T09:11:51.381Z,4.72
2022-12-23T09:14:56.297Z,3.83
2022-12-23T09:18:01.281Z,4.43
2022-12-23T09:21:10.966Z,3.92
2022-12-23T09:24:16.151Z,3.00
2022-12-23T09:27:21.160Z,4.60
2022-12-23T09:30:26.104Z,4.40
2022-12-23T09:33:31.361Z,4.18
2022-12-23T09:36:36.560Z,6.93
2022-12-23T09:39:41.543Z,8.95
2022-12-23T09:43:09.898Z,11.07
2022-12-23T09:46:22.944Z,7.80
2022-12-23T09:49:28.163Z,6.35
2022-12-23T09:53:04.333Z,7.30
2022-12-23T09:56:22.636Z,4.45
2022-12-23T10:00:12.260Z,8.68
2022-12-23T10:03:29.638Z,4.82
2022-12-23T10:06:34.785Z,5.82
2022-12-23T10:09:41.770Z,5.65
2022-12-23T10:12:50.342Z,6.28
2022-12-23T10:15:58.461Z,7.47
2022-12-23T10:19:22.836Z,6.28
2022-12-23T10:22:54.189Z,5.15
2022-12-23T10:26:01.570Z,6.22
2022-12-23T10:29:21.104Z,5.40
2022-12-23T10:32:41.539Z,6.80
2022-12-23T10:36:01.912Z,6.63
2022-12-23T10:39:58.052Z,4.82
2022-12-23T10:43:04.847Z,4.25
2022-12-23T10:46:51.881Z,4.57
2022-12-23T10:50:26.635Z,3.47
2022-12-23T10:53:38.185Z,5.55
2022-12-23T10:56:44.026Z,3.92
2022-12-23T10:59:49.657Z,4.63
2022-12-23T11:03:17.802Z,4.20
2022-12-23T11:06:23.007Z,4.75
2022-12-23T11:09:37.912Z,5.45
2022-12-23T11:12:47.554Z,8.23
2022-12-23T11:15:53.531Z,28.65
2022-12-23T11:19:15.733Z,83.85
2022-12-23T11:22:25.806Z,30.67
2022-12-23T11:25:42.984Z,50.20
2022-12-23T11:28:51.450Z,15.77
2022-12-23T11:31:56.612Z,10.20
2022-12-23T11:35:01.896Z,12.95
2022-12-23T11:38:12.563Z,9.40
2022-12-23T11:41:25.523Z,8.15
2022-12-23T11:44:49.637Z,6.90
2022-12-23T11:47:56.166Z,7.78
2022-12-23T11:51:03.722Z,6.95
2022-12-23T11:54:18.114Z,7.55
2022-12-23T11:57:40.764Z,6.93
2022-12-23T12:00:56.502Z,7.03
2022-12-23T12:04:05.966Z,6.30
2022-12-23T12:07:14.620Z,4.60
2022-12-23T12:10:26.344Z,4.40
2022-12-23T12:13:38.598Z,5.03
2022-12-23T12:17:00.954Z,8.82
2022-12-23T12:20:24.004Z,23.23
2022-12-23T12:23:40.916Z,29.65
2022-12-23T12:26:51.272Z,90.80
2022-12-23T12:29:58.446Z,41.35
2022-12-23T12:33:34.109Z,50.38
2022-12-23T12:37:04.604Z,40.90
2022-12-23T12:40:32.943Z,9.63
2022-12-23T12:43:48.972Z,9.63
2022-12-23T12:47:44.642Z,9.45
2022-12-23T12:50:44.576Z,7.28
2022-12-23T12:54:12.779Z,7.35
2022-12-23T12:57:20.740Z,8.15
2022-12-23T13:00:25.856Z,8.88
2022-12-23T13:04:16.801Z,7.70
2022-12-23T13:07:40.399Z,10.77
2022-12-23T13:10:59.674Z,9.45
2022-12-23T13:14:30.093Z,8.18
2022-12-23T13:18:11.857Z,7.50
2022-12-23T13:21:46.595Z,9.55
2022-12-23T13:25:14.541Z,7.20
2022-12-23T13:28:43.775Z,21.30
2022-12-23T13:31:50.008Z,21.10
2022-12-23T13:35:20.838Z,13.85
2022-12-23T13:38:44.671Z,14.73
2022-12-23T13:41:52.194Z,14.30
2022-12-23T13:44:58.712Z,12.38
2022-12-23T13:48:09.571Z,10.55
2022-12-23T13:51:38.665Z,12.23
2022-12-23T13:55:01.894Z,13.85
2022-12-23T13:58:17.554Z,18.98
2022-12-23T14:01:46.874Z,10.52
2022-12-23T14:04:59.494Z,9.38
2022-12-23T14:08:26.114Z,12.40
2022-12-23T14:11:32.425Z,14.52
2022-12-23T14:14:48.182Z,14.82
2022-12-23T14:18:28.588Z,15.45
2022-12-23T14:21:48.873Z,13.82
2022-12-23T14:25:11.884Z,10.07
2022-12-23T14:28:42.692Z,12.82
2022-12-23T14:31:55.447Z,11.13
2022-12-23T14:35:23.779Z,12.00
2022-12-23T14:38:34.603Z,13.10
2022-12-23T14:41:50.000Z,13.93
2022-12-23T14:44:54.727Z,14.88
2022-12-23T14:47:59.703Z,18.70
2022-12-23T14:51:25.553Z,20.83
2022-12-23T14:54:39.781Z,19.10
2022-12-23T14:57:44.789Z,17.83
2022-12-23T15:01:02.344Z,19.48
2022-12-23T15:04:10.504Z,21.33
2022-12-23T15:07:24.948Z,21.83
2022-12-23T15:10:30.414Z,22.67
2022-12-23T15:13:35.376Z,29.27
2022-12-23T15:16:45.171Z,29.50
2022-12-23T15:19:50.080Z,34.60
2022-12-23T15:23:00.507Z,43.20
2022-12-23T15:26:05.757Z,23.20
2022-12-23T15:29:12.386Z,18.38
2022-12-23T15:32:22.233Z,25.80
2022-12-23T15:35:31.597Z,29.05
2022-12-23T15:38:38.066Z,30.52
2022-12-23T15:41:48.048Z,27.35
2022-12-23T15:44:53.951Z,23.17
2022-12-23T15:47:58.958Z,22.77
2022-12-23T15:52:05.931Z,21.20
2022-12-23T15:55:12.176Z,24.60
2022-12-23T15:58:21.999Z,22.13
2022-12-23T16:01:27.150Z,29.35
2022-12-23T16:04:32.341Z,15.35
2022-12-23T16:07:41.115Z,11.98
2022-12-23T16:11:15.213Z,17.90
2022-12-23T16:14:35.703Z,19.17
2022-12-23T16:17:40.781Z,22.25
2022-12-23T16:20:54.113Z,21.42
2022-12-23T16:24:00.089Z,22.92
2022-12-23T16:27:05.186Z,32.92
2022-12-23T16:30:18.852Z,36.70
2022-12-23T16:33:58.008Z,17.50
2022-12-23T16:37:02.953Z,23.33
2022-12-23T16:40:14.377Z,24.98
2022-12-23T16:43:20.632Z,18.98
2022-12-23T16:46:26.046Z,15.10
2022-12-23T16:49:33.646Z,14.60
2022-12-23T16:52:39.126Z,11.82
2022-12-23T16:55:51.167Z,20.33
2022-12-23T16:59:00.110Z,15.55
2022-12-23T17:02:09.487Z,15.75
2022-12-23T17:05:21.927Z,18.63
2022-12-23T17:08:26.995Z,13.43
2022-12-23T17:11:45.815Z,14.10
2022-12-23T17:14:50.763Z,12.88
2022-12-23T17:17:55.730Z,15.82
2022-12-23T17:21:00.637Z,16.58
2022-12-23T17:24:17.356Z,21.30
2022-12-23T17:27:22.322Z,27.23
2022-12-23T17:30:27.339Z,20.45
2022-12-23T17:33:33.187Z,39.85
2022-12-23T17:36:41.937Z,22.30
2022-12-23T17:39:50.001Z,16.58
2022-12-23T17:42:55.342Z,17.88
2022-12-23T17:46:00.495Z,13.93
2022-12-23T17:49:05.145Z,15.20
2022-12-23T17:52:19.580Z,14.32
2022-12-23T17:55:25.633Z,17.20
2022-12-23T17:58:30.663Z,14.35
2022-12-23T18:01:35.678Z,16.75
2022-12-23T18:04:40.568Z,16.63
2022-12-23T18:07:45.670Z,17.63
2022-12-23T18:10:50.558Z,17.30
2022-12-23T18:13:55.696Z,18.10
2022-12-23T18:17:00.796Z,16.52
2022-12-23T18:20:06.720Z,17.20
2022-12-23T18:23:15.000Z,14.93
2022-12-23T18:26:20.389Z,16.15
2022-12-23T18:29:25.410Z,13.20
2022-12-23T18:32:30.140Z,11.35
2022-12-23T18:35:39.745Z,12.43
2022-12-23T18:38:44.424Z,13.13
2022-12-23T18:41:49.764Z,15.05
2022-12-23T18:44:54.887Z,19.30
2022-12-23T18:48:00.616Z,13.43
2022-12-23T18:51:05.806Z,14.75
2022-12-23T18:54:17.216Z,14.82
2022-12-23T18:57:23.115Z,15.50
2022-12-23T19:00:30.910Z,12.25
2022-12-23T19:03:35.775Z,12.43
2022-12-23T19:06:41.257Z,10.95
2022-12-23T19:09:46.259Z,9.02
2022-12-23T19:12:51.947Z,10.02
2022-12-23T19:15:57.286Z,10.20
2022-12-23T19:19:02.516Z,9.30
2022-12-23T19:22:07.477Z,10.93
2022-12-23T19:25:18.575Z,11.55
2022-12-23T19:28:24.040Z,11.05
2022-12-23T19:31:29.951Z,11.52
2022-12-23T19:34:35.153Z,9.32
2022-12-23T19:37:40.831Z,11.55
2022-12-23T19:40:45.819Z,12.70
2022-12-23T19:43:50.806Z,8.73
2022-12-23T19:46:56.052Z,12.80
2022-12-23T19:50:01.110Z,13.15
2022-12-23T19:53:06.261Z,41.35
2022-12-23T19:56:15.862Z,62.90
2022-12-23T19:59:21.140Z,21.83
2022-12-23T20:02:25.852Z,39.33
2022-12-23T20:05:30.690Z,21.85
2022-12-23T20:08:35.614Z,12.80
2022-12-23T20:11:48.893Z,12.63
2022-12-23T20:14:53.667Z,19.30
2022-12-23T20:17:59.694Z,13.48
2022-12-23T20:21:05.561Z,10.02
2022-12-23T20:24:10.872Z,17.08
2022-12-23T20:27:17.612Z,10.27
2022-12-23T20:30:23.249Z,9.65
2022-12-23T20:33:28.430Z,7.05
2022-12-23T20:36:35.390Z,7.25
2022-12-23T20:39:40.169Z,8.65
2022-12-23T20:42:46.208Z,6.38
2022-12-23T20:45:52.155Z,8.77
2022-12-23T20:48:57.209Z,17.63
2022-12-23T20:52:02.121Z,14.48
2022-12-23T20:55:07.770Z,10.60
2022-12-23T20:58:30.908Z,10.18
2022-12-23T21:01:38.942Z,11.20
2022-12-23T21:04:43.870Z,8.30
2022-12-23T21:07:48.639Z,8.15
2022-12-23T21:10:58.658Z,11.52
2022-12-23T21:14:06.762Z,12.32
2022-12-23T21:17:12.234Z,7.47
2022-12-23T21:20:17.344Z,9.45
2022-12-23T21:23:22.445Z,9.65
2022-12-23T21:26:29.571Z,9.73
2022-12-23T21:29:34.367Z,11.35
2022-12-23T21:32:39.545Z,7.57
2022-12-23T21:35:45.797Z,13.88
2022-12-23T21:38:51.788Z,15.55
2022-12-23T21:41:58.136Z,16.65
2022-12-23T21:45:03.676Z,5.85
2022-12-23T21:48:08.669Z,9.48
2022-12-23T21:51:22.090Z,6.38
2022-12-23T21:54:27.246Z,6.15
2022-12-23T21:57:32.072Z,7.20
2022-12-23T22:00:37.129Z,5.75
2022-12-23T22:03:42.995Z,19.02
2022-12-23T22:06:47.983Z,10.40
2022-12-23T22:09:52.803Z,15.50
2022-12-23T22:12:57.989Z,17.65
2022-12-23T22:16:03.930Z,9.10
2022-12-23T22:19:10.946Z,8.73
2022-12-23T22:22:15.768Z,6.03
2022-12-23T22:25:20.535Z,6.85
2022-12-23T22:28:25.481Z,5.85
2022-12-23T22:31:47.285Z,7.85
2022-12-23T22:34:52.271Z,6.53
2022-12-23T22:37:58.054Z,4.18
2022-12-23T22:41:03.526Z,10.30
2022-12-23T22:44:10.936Z,13.13
2022-12-23T22:47:16.117Z,29.38
2022-12-23T22:50:20.982Z,29.65
2022-12-23T22:53:29.703Z,33.80
2022-12-23T22:56:34.807Z,24.25
2022-12-23T22:59:39.723Z,17.92
2022-12-23T23:02:44.707Z,13.60
2022-12-23T23:06:10.224Z,10.68
2022-12-23T23:09:18.420Z,5.72
2022-12-23T23:12:23.505Z,11.70
2022-12-23T23:15:28.823Z,22.10
2022-12-23T23:18:33.867Z,14.52
2022-12-23T23:21:39.252Z,7.97
2022-12-23T23:24:43.998Z,6.60
2022-12-23T23:27:48.831Z,5.55
2022-12-23T23:31:16.688Z,7.50
2022-12-23T23:34:18.769Z,5.07
2022-12-23T23:37:23.831Z,6.18
2022-12-23T23:40:29.665Z,4.60
2022-12-23T23:43:34.622Z,3.58
2022-12-23T23:46:39.805Z,5.30
2022-12-23T23:49:44.737Z,5.32
2022-12-23T23:52:49.543Z,5.20
2022-12-23T23:56:02.229Z,4.88
2022-12-23T23:59:08.962Z,5.20
